sensor_id;sensor_type;location;lat;lon;timestamp;temperature;humidity
69084;SHT31;56185;48.526;9.044;2022-10-30T00:00:47;13.73;85.24
69084;SHT31;56185;48.526;9.044;2022-10-30T00:03:14;13.67;85.43
69084;SHT31;56185;48.526;9.044;2022-10-30T00:05:43;13.67;85.59
69084;SHT31;56185;48.526;9.044;2022-10-30T00:08:10;13.59;85.77
69084;SHT31;56185;48.526;9.044;2022-10-30T00:10:36;13.60;85.60
69084;SHT31;56185;48.526;9.044;2022-10-30T00:13:01;13.57;85.27
69084;SHT31;56185;48.526;9.044;2022-10-30T00:15:26;13.56;84.93
69084;SHT31;56185;48.526;9.044;2022-10-30T00:17:54;13.63;84.68
69084;SHT31;56185;48.526;9.044;2022-10-30T00:20:20;13.53;85.24
69084;SHT31;56185;48.526;9.044;2022-10-30T00:22:45;13.60;84.76
69084;SHT31;56185;48.526;9.044;2022-10-30T00:25:10;13.67;84.55
69084;SHT31;56185;48.526;9.044;2022-10-30T00:27:35;13.62;84.63
69084;SHT31;56185;48.526;9.044;2022-10-30T00:30:01;13.60;84.44
69084;SHT31;56185;48.526;9.044;2022-10-30T00:32:26;13.52;85.07
69084;SHT31;56185;48.526;9.044;2022-10-30T00:34:53;13.43;85.87
69084;SHT31;56185;48.526;9.044;2022-10-30T00:37:18;13.45;86.11
69084;SHT31;56185;48.526;9.044;2022-10-30T00:39:43;13.43;86.04
69084;SHT31;56185;48.526;9.044;2022-10-30T00:42:13;13.47;86.10
69084;SHT31;56185;48.526;9.044;2022-10-30T00:44:47;13.47;86.28
69084;SHT31;56185;48.526;9.044;2022-10-30T00:47:17;13.56;84.84
69084;SHT31;56185;48.526;9.044;2022-10-30T00:49:49;13.59;85.07
69084;SHT31;56185;48.526;9.044;2022-10-30T00:52:15;13.47;85.40
69084;SHT31;56185;48.526;9.044;2022-10-30T00:54:41;13.34;85.59
69084;SHT31;56185;48.526;9.044;2022-10-30T00:57:07;13.40;85.55
69084;SHT31;56185;48.526;9.044;2022-10-30T00:59:34;13.49;85.61
69084;SHT31;56185;48.526;9.044;2022-10-30T01:02:02;13.60;85.11
69084;SHT31;56185;48.526;9.044;2022-10-30T01:04:28;13.47;85.26
69084;SHT31;56185;48.526;9.044;2022-10-30T01:06:56;13.45;85.14
69084;SHT31;56185;48.526;9.044;2022-10-30T01:09:22;13.43;85.23
69084;SHT31;56185;48.526;9.044;2022-10-30T01:11:48;13.43;85.07
69084;SHT31;56185;48.526;9.044;2022-10-30T01:14:16;13.52;84.46
69084;SHT31;56185;48.526;9.044;2022-10-30T01:30:14;13.43;84.60
69084;SHT31;56185;48.526;9.044;2022-10-30T01:32:52;13.57;83.67
69084;SHT31;56185;48.526;9.044;2022-10-30T01:35:27;13.43;83.90
69084;SHT31;56185;48.526;9.044;2022-10-30T01:38:02;13.38;83.96
69084;SHT31;56185;48.526;9.044;2022-10-30T01:40:32;13.28;83.63
69084;SHT31;56185;48.526;9.044;2022-10-30T01:42:57;13.29;83.60
69084;SHT31;56185;48.526;9.044;2022-10-30T01:51:14;12.99;83.57
69084;SHT31;56185;48.526;9.044;2022-10-30T01:53:54;12.76;85.38
69084;SHT31;56185;48.526;9.044;2022-10-30T01:56:37;12.73;85.52
69084;SHT31;56185;48.526;9.044;2022-10-30T01:59:17;12.76;86.03
69084;SHT31;56185;48.526;9.044;2022-10-30T02:01:45;12.76;86.30
69084;SHT31;56185;48.526;9.044;2022-10-30T02:04:12;12.84;85.76
69084;SHT31;56185;48.526;9.044;2022-10-30T02:06:38;12.87;85.14
69084;SHT31;56185;48.526;9.044;2022-10-30T02:09:04;12.84;85.07
69084;SHT31;56185;48.526;9.044;2022-10-30T02:11:31;12.73;85.16
69084;SHT31;56185;48.526;9.044;2022-10-30T02:13:57;12.74;85.06
69084;SHT31;56185;48.526;9.044;2022-10-30T02:16:24;12.65;85.72
69084;SHT31;56185;48.526;9.044;2022-10-30T02:18:49;12.65;86.11
69084;SHT31;56185;48.526;9.044;2022-10-30T02:21:14;12.68;86.53
69084;SHT31;56185;48.526;9.044;2022-10-30T02:23:40;12.71;86.55
69084;SHT31;56185;48.526;9.044;2022-10-30T02:26:05;12.74;86.90
69084;SHT31;56185;48.526;9.044;2022-10-30T02:28:30;12.94;85.77
69084;SHT31;56185;48.526;9.044;2022-10-30T02:30:56;12.92;85.46
69084;SHT31;56185;48.526;9.044;2022-10-30T02:33:21;12.84;85.49
69084;SHT31;56185;48.526;9.044;2022-10-30T02:35:46;12.69;85.49
69084;SHT31;56185;48.526;9.044;2022-10-30T02:38:11;12.78;85.13
69084;SHT31;56185;48.526;9.044;2022-10-30T02:40:37;12.67;85.74
69084;SHT31;56185;48.526;9.044;2022-10-30T02:43:02;12.63;85.47
69084;SHT31;56185;48.526;9.044;2022-10-30T02:45:27;12.64;85.53
69084;SHT31;56185;48.526;9.044;2022-10-30T02:47:52;12.68;85.39
69084;SHT31;56185;48.526;9.044;2022-10-30T02:50:18;12.64;85.87
69084;SHT31;56185;48.526;9.044;2022-10-30T02:52:43;12.81;85.23
69084;SHT31;56185;48.526;9.044;2022-10-30T02:55:08;12.68;85.23
69084;SHT31;56185;48.526;9.044;2022-10-30T02:57:33;12.74;84.76
69084;SHT31;56185;48.526;9.044;2022-10-30T02:59:59;12.64;85.18
69084;SHT31;56185;48.526;9.044;2022-10-30T03:02:24;12.61;85.37
69084;SHT31;56185;48.526;9.044;2022-10-30T03:04:50;12.58;85.48
69084;SHT31;56185;48.526;9.044;2022-10-30T03:07:15;12.69;85.45
69084;SHT31;56185;48.526;9.044;2022-10-30T03:09:41;12.64;85.54
69084;SHT31;56185;48.526;9.044;2022-10-30T03:12:06;12.50;86.14
69084;SHT31;56185;48.526;9.044;2022-10-30T03:14:31;12.56;85.95
69084;SHT31;56185;48.526;9.044;2022-10-30T03:16:57;12.50;86.15
69084;SHT31;56185;48.526;9.044;2022-10-30T03:19:22;12.33;86.31
69084;SHT31;56185;48.526;9.044;2022-10-30T03:21:47;12.39;85.67
69084;SHT31;56185;48.526;9.044;2022-10-30T03:24:12;12.47;85.44
69084;SHT31;56185;48.526;9.044;2022-10-30T03:26:38;12.53;85.18
69084;SHT31;56185;48.526;9.044;2022-10-30T03:29:03;12.53;85.13
69084;SHT31;56185;48.526;9.044;2022-10-30T03:31:29;12.57;84.60
69084;SHT31;56185;48.526;9.044;2022-10-30T03:33:55;12.61;84.40
69084;SHT31;56185;48.526;9.044;2022-10-30T03:36:20;12.48;84.86
69084;SHT31;56185;48.526;9.044;2022-10-30T03:38:45;12.39;84.80
69084;SHT31;56185;48.526;9.044;2022-10-30T03:41:11;12.34;85.09
69084;SHT31;56185;48.526;9.044;2022-10-30T03:43:36;12.44;84.49
69084;SHT31;56185;48.526;9.044;2022-10-30T03:46:01;12.41;84.63
69084;SHT31;56185;48.526;9.044;2022-10-30T03:48:28;12.41;84.10
69084;SHT31;56185;48.526;9.044;2022-10-30T03:50:54;12.19;84.48
69084;SHT31;56185;48.526;9.044;2022-10-30T03:53:20;12.25;83.92
69084;SHT31;56185;48.526;9.044;2022-10-30T03:55:45;12.02;84.30
69084;SHT31;56185;48.526;9.044;2022-10-30T03:58:11;12.12;83.99
69084;SHT31;56185;48.526;9.044;2022-10-30T04:00:36;11.93;84.10
69084;SHT31;56185;48.526;9.044;2022-10-30T04:03:05;11.83;84.58
69084;SHT31;56185;48.526;9.044;2022-10-30T04:05:31;11.85;84.95
69084;SHT31;56185;48.526;9.044;2022-10-30T04:07:58;11.72;84.84
69084;SHT31;56185;48.526;9.044;2022-10-30T04:10:24;11.74;84.85
69084;SHT31;56185;48.526;9.044;2022-10-30T04:12:49;11.71;84.82
69084;SHT31;56185;48.526;9.044;2022-10-30T04:15:15;11.74;85.35
69084;SHT31;56185;48.526;9.044;2022-10-30T04:17:47;11.67;85.52
69084;SHT31;56185;48.526;9.044;2022-10-30T04:20:12;11.75;85.10
69084;SHT31;56185;48.526;9.044;2022-10-30T04:22:37;11.65;84.80
69084;SHT31;56185;48.526;9.044;2022-10-30T04:25:03;11.71;84.92
69084;SHT31;56185;48.526;9.044;2022-10-30T04:27:28;11.62;85.40
69084;SHT31;56185;48.526;9.044;2022-10-30T04:29:53;11.67;85.14
69084;SHT31;56185;48.526;9.044;2022-10-30T04:32:19;11.58;85.23
69084;SHT31;56185;48.526;9.044;2022-10-30T04:34:44;11.55;85.35
69084;SHT31;56185;48.526;9.044;2022-10-30T04:37:09;11.45;85.71
69084;SHT31;56185;48.526;9.044;2022-10-30T04:39:34;11.62;84.93
69084;SHT31;56185;48.526;9.044;2022-10-30T04:42:00;11.50;85.55
69084;SHT31;56185;48.526;9.044;2022-10-30T04:44:25;11.45;85.59
69084;SHT31;56185;48.526;9.044;2022-10-30T04:46:50;11.40;85.56
69084;SHT31;56185;48.526;9.044;2022-10-30T04:49:15;11.45;85.15
69084;SHT31;56185;48.526;9.044;2022-10-30T04:51:41;11.45;85.18
69084;SHT31;56185;48.526;9.044;2022-10-30T04:54:06;11.44;85.17
69084;SHT31;56185;48.526;9.044;2022-10-30T04:56:31;11.38;85.59
69084;SHT31;56185;48.526;9.044;2022-10-30T04:58:56;11.41;85.52
69084;SHT31;56185;48.526;9.044;2022-10-30T05:01:22;11.38;85.87
69084;SHT31;56185;48.526;9.044;2022-10-30T05:03:47;11.35;86.61
69084;SHT31;56185;48.526;9.044;2022-10-30T05:06:21;11.31;86.02
69084;SHT31;56185;48.526;9.044;2022-10-30T05:08:48;11.28;86.40
69084;SHT31;56185;48.526;9.044;2022-10-30T05:11:13;11.27;86.63
69084;SHT31;56185;48.526;9.044;2022-10-30T05:13:38;11.41;86.41
69084;SHT31;56185;48.526;9.044;2022-10-30T05:16:04;11.42;85.85
69084;SHT31;56185;48.526;9.044;2022-10-30T05:18:29;11.40;86.08
69084;SHT31;56185;48.526;9.044;2022-10-30T05:20:55;11.42;86.01
69084;SHT31;56185;48.526;9.044;2022-10-30T05:23:20;11.35;86.06
69084;SHT31;56185;48.526;9.044;2022-10-30T05:25:45;11.26;86.40
69084;SHT31;56185;48.526;9.044;2022-10-30T05:28:10;11.41;85.95
69084;SHT31;56185;48.526;9.044;2022-10-30T05:30:35;11.30;85.68
69084;SHT31;56185;48.526;9.044;2022-10-30T05:33:03;11.23;86.28
69084;SHT31;56185;48.526;9.044;2022-10-30T05:35:30;11.23;85.83
69084;SHT31;56185;48.526;9.044;2022-10-30T05:37:55;11.26;85.90
69084;SHT31;56185;48.526;9.044;2022-10-30T05:40:20;11.21;86.26
69084;SHT31;56185;48.526;9.044;2022-10-30T05:42:46;11.26;85.99
69084;SHT31;56185;48.526;9.044;2022-10-30T05:45:12;11.21;86.08
69084;SHT31;56185;48.526;9.044;2022-10-30T05:47:37;11.06;86.23
69084;SHT31;56185;48.526;9.044;2022-10-30T05:50:03;11.10;86.38
69084;SHT31;56185;48.526;9.044;2022-10-30T05:52:29;11.04;86.09
69084;SHT31;56185;48.526;9.044;2022-10-30T05:54:54;11.10;85.86
69084;SHT31;56185;48.526;9.044;2022-10-30T05:57:20;11.11;86.30
69084;SHT31;56185;48.526;9.044;2022-10-30T05:59:45;11.06;86.73
69084;SHT31;56185;48.526;9.044;2022-10-30T06:02:10;11.06;86.50
69084;SHT31;56185;48.526;9.044;2022-10-30T06:04:36;10.99;86.79
69084;SHT31;56185;48.526;9.044;2022-10-30T06:07:01;11.07;86.22
69084;SHT31;56185;48.526;9.044;2022-10-30T06:09:26;10.99;86.63
69084;SHT31;56185;48.526;9.044;2022-10-30T06:11:52;11.07;86.38
69084;SHT31;56185;48.526;9.044;2022-10-30T06:14:17;11.10;86.25
69084;SHT31;56185;48.526;9.044;2022-10-30T06:16:43;11.07;86.48
69084;SHT31;56185;48.526;9.044;2022-10-30T06:19:08;11.21;85.85
69084;SHT31;56185;48.526;9.044;2022-10-30T06:21:33;11.20;86.15
69084;SHT31;56185;48.526;9.044;2022-10-30T06:23:58;11.23;85.91
69084;SHT31;56185;48.526;9.044;2022-10-30T06:26:24;11.19;86.45
69084;SHT31;56185;48.526;9.044;2022-10-30T06:28:49;11.20;86.56
69084;SHT31;56185;48.526;9.044;2022-10-30T06:31:14;11.28;86.72
69084;SHT31;56185;48.526;9.044;2022-10-30T06:33:39;11.23;86.30
69084;SHT31;56185;48.526;9.044;2022-10-30T06:36:05;11.21;86.53
69084;SHT31;56185;48.526;9.044;2022-10-30T06:38:30;11.28;86.43
69084;SHT31;56185;48.526;9.044;2022-10-30T06:40:55;11.31;86.15
69084;SHT31;56185;48.526;9.044;2022-10-30T06:43:20;11.51;85.65
69084;SHT31;56185;48.526;9.044;2022-10-30T06:45:45;11.41;86.00
69084;SHT31;56185;48.526;9.044;2022-10-30T06:48:11;11.44;85.90
69084;SHT31;56185;48.526;9.044;2022-10-30T06:50:37;11.65;85.80
69084;SHT31;56185;48.526;9.044;2022-10-30T06:53:02;11.71;85.53
69084;SHT31;56185;48.526;9.044;2022-10-30T06:55:27;11.67;85.39
69084;SHT31;56185;48.526;9.044;2022-10-30T06:57:54;11.77;85.92
69084;SHT31;56185;48.526;9.044;2022-10-30T07:00:20;11.69;86.47
69084;SHT31;56185;48.526;9.044;2022-10-30T07:02:57;11.69;86.51
69084;SHT31;56185;48.526;9.044;2022-10-30T07:05:22;12.00;85.11
69084;SHT31;56185;48.526;9.044;2022-10-30T07:07:48;12.05;84.63
69084;SHT31;56185;48.526;9.044;2022-10-30T07:10:13;12.22;84.48
69084;SHT31;56185;48.526;9.044;2022-10-30T07:12:38;12.20;84.14
69084;SHT31;56185;48.526;9.044;2022-10-30T07:15:04;12.20;84.18
69084;SHT31;56185;48.526;9.044;2022-10-30T07:17:29;12.30;83.73
69084;SHT31;56185;48.526;9.044;2022-10-30T07:19:54;12.39;83.29
69084;SHT31;56185;48.526;9.044;2022-10-30T07:22:20;12.33;83.11
69084;SHT31;56185;48.526;9.044;2022-10-30T07:24:45;12.43;83.97
69084;SHT31;56185;48.526;9.044;2022-10-30T07:27:10;12.41;83.24
69084;SHT31;56185;48.526;9.044;2022-10-30T07:29:35;12.44;84.05
69084;SHT31;56185;48.526;9.044;2022-10-30T07:32:01;12.41;83.79
69084;SHT31;56185;48.526;9.044;2022-10-30T07:34:26;12.41;83.40
69084;SHT31;56185;48.526;9.044;2022-10-30T07:36:51;12.34;82.95
69084;SHT31;56185;48.526;9.044;2022-10-30T07:39:16;12.36;83.37
69084;SHT31;56185;48.526;9.044;2022-10-30T07:41:42;12.39;82.87
69084;SHT31;56185;48.526;9.044;2022-10-30T07:44:07;12.39;81.86
69084;SHT31;56185;48.526;9.044;2022-10-30T07:46:32;12.32;82.80
69084;SHT31;56185;48.526;9.044;2022-10-30T07:48:57;12.30;82.78
69084;SHT31;56185;48.526;9.044;2022-10-30T07:51:22;12.36;82.62
69084;SHT31;56185;48.526;9.044;2022-10-30T07:53:48;12.32;83.20
69084;SHT31;56185;48.526;9.044;2022-10-30T07:56:13;12.27;83.15
69084;SHT31;56185;48.526;9.044;2022-10-30T07:58:38;12.30;82.87
69084;SHT31;56185;48.526;9.044;2022-10-30T08:01:03;12.43;82.82
69084;SHT31;56185;48.526;9.044;2022-10-30T08:03:29;12.43;82.98
69084;SHT31;56185;48.526;9.044;2022-10-30T08:05:54;12.39;82.91
69084;SHT31;56185;48.526;9.044;2022-10-30T08:08:19;12.51;82.70
69084;SHT31;56185;48.526;9.044;2022-10-30T08:10:44;12.51;82.63
69084;SHT31;56185;48.526;9.044;2022-10-30T08:13:10;12.60;82.51
69084;SHT31;56185;48.526;9.044;2022-10-30T08:15:35;12.68;82.55
69084;SHT31;56185;48.526;9.044;2022-10-30T08:18:00;12.84;81.99
69084;SHT31;56185;48.526;9.044;2022-10-30T08:20:26;12.83;82.19
69084;SHT31;56185;48.526;9.044;2022-10-30T08:22:53;12.88;82.02
69084;SHT31;56185;48.526;9.044;2022-10-30T08:25:20;12.92;81.85
69084;SHT31;56185;48.526;9.044;2022-10-30T08:28:10;12.98;81.79
69084;SHT31;56185;48.526;9.044;2022-10-30T08:30:35;13.04;81.55
69084;SHT31;56185;48.526;9.044;2022-10-30T08:33:03;13.07;81.88
69084;SHT31;56185;48.526;9.044;2022-10-30T08:35:29;13.14;81.20
69084;SHT31;56185;48.526;9.044;2022-10-30T08:37:55;13.22;81.00
69084;SHT31;56185;48.526;9.044;2022-10-30T08:40:20;13.38;80.96
69084;SHT31;56185;48.526;9.044;2022-10-30T08:42:50;13.46;81.61
69084;SHT31;56185;48.526;9.044;2022-10-30T08:45:19;13.65;80.78
69084;SHT31;56185;48.526;9.044;2022-10-30T08:47:45;13.73;80.31
69084;SHT31;56185;48.526;9.044;2022-10-30T08:50:10;13.87;79.68
69084;SHT31;56185;48.526;9.044;2022-10-30T08:52:35;13.98;79.73
69084;SHT31;56185;48.526;9.044;2022-10-30T08:55:01;14.11;80.34
69084;SHT31;56185;48.526;9.044;2022-10-30T08:57:26;14.29;79.12
69084;SHT31;56185;48.526;9.044;2022-10-30T08:59:51;14.46;78.73
69084;SHT31;56185;48.526;9.044;2022-10-30T09:02:17;14.62;78.76
69084;SHT31;56185;48.526;9.044;2022-10-30T09:04:42;14.79;77.41
69084;SHT31;56185;48.526;9.044;2022-10-30T09:07:07;14.90;77.88
69084;SHT31;56185;48.526;9.044;2022-10-30T09:09:32;15.02;77.58
69084;SHT31;56185;48.526;9.044;2022-10-30T09:11:58;15.19;76.44
69084;SHT31;56185;48.526;9.044;2022-10-30T09:14:23;15.27;76.89
69084;SHT31;56185;48.526;9.044;2022-10-30T09:16:48;15.48;77.01
69084;SHT31;56185;48.526;9.044;2022-10-30T09:19:13;15.58;76.50
69084;SHT31;56185;48.526;9.044;2022-10-30T09:21:39;15.64;76.37
69084;SHT31;56185;48.526;9.044;2022-10-30T09:24:04;15.69;76.79
69084;SHT31;56185;48.526;9.044;2022-10-30T09:26:30;15.79;76.89
69084;SHT31;56185;48.526;9.044;2022-10-30T09:28:56;15.96;76.11
69084;SHT31;56185;48.526;9.044;2022-10-30T09:31:24;16.12;76.91
69084;SHT31;56185;48.526;9.044;2022-10-30T09:33:49;16.20;76.33
69084;SHT31;56185;48.526;9.044;2022-10-30T09:36:14;16.41;75.94
69084;SHT31;56185;48.526;9.044;2022-10-30T09:38:39;16.63;75.28
69084;SHT31;56185;48.526;9.044;2022-10-30T09:44:00;16.84;73.62
69084;SHT31;56185;48.526;9.044;2022-10-30T10:05:10;17.69;70.73
69084;SHT31;56185;48.526;9.044;2022-10-30T10:07:41;17.79;70.84
69084;SHT31;56185;48.526;9.044;2022-10-30T10:10:16;17.91;70.06
69084;SHT31;56185;48.526;9.044;2022-10-30T10:12:49;18.04;70.19
69084;SHT31;56185;48.526;9.044;2022-10-30T10:15:30;18.31;69.73
69084;SHT31;56185;48.526;9.044;2022-10-30T10:17:58;18.41;69.04
69084;SHT31;56185;48.526;9.044;2022-10-30T10:20:29;18.44;68.15
69084;SHT31;56185;48.526;9.044;2022-10-30T10:22:58;18.53;68.13
69084;SHT31;56185;48.526;9.044;2022-10-30T10:25:28;18.60;68.49
69084;SHT31;56185;48.526;9.044;2022-10-30T10:28:39;18.66;68.26
69084;SHT31;56185;48.526;9.044;2022-10-30T10:31:57;18.72;67.23
69084;SHT31;56185;48.526;9.044;2022-10-30T10:35:01;18.76;68.08
69084;SHT31;56185;48.526;9.044;2022-10-30T10:37:09;19.02;68.10
69084;SHT31;56185;48.526;9.044;2022-10-30T10:42:55;19.46;67.01
69084;SHT31;56185;48.526;9.044;2022-10-30T10:45:47;19.57;65.68
69084;SHT31;56185;48.526;9.044;2022-10-30T10:48:35;19.68;65.77
69084;SHT31;56185;48.526;9.044;2022-10-30T10:51:06;19.78;64.94
69084;SHT31;56185;48.526;9.044;2022-10-30T10:53:53;19.82;65.37
69084;SHT31;56185;48.526;9.044;2022-10-30T10:56:23;19.85;65.66
69084;SHT31;56185;48.526;9.044;2022-10-30T10:58:59;19.92;65.70
69084;SHT31;56185;48.526;9.044;2022-10-30T11:01:36;19.98;64.80
69084;SHT31;56185;48.526;9.044;2022-10-30T11:04:04;20.12;64.93
69084;SHT31;56185;48.526;9.044;2022-10-30T11:06:38;20.19;65.21
69084;SHT31;56185;48.526;9.044;2022-10-30T11:09:13;20.27;63.88
69084;SHT31;56185;48.526;9.044;2022-10-30T11:11:45;20.26;64.56
69084;SHT31;56185;48.526;9.044;2022-10-30T11:14:14;20.25;64.62
69084;SHT31;56185;48.526;9.044;2022-10-30T11:16:52;20.26;64.42
69084;SHT31;56185;48.526;9.044;2022-10-30T11:19:20;20.23;64.74
69084;SHT31;56185;48.526;9.044;2022-10-30T11:21:48;20.25;65.22
69084;SHT31;56185;48.526;9.044;2022-10-30T11:24:32;20.33;64.34
69084;SHT31;56185;48.526;9.044;2022-10-30T11:32:19;20.40;64.23
69084;SHT31;56185;48.526;9.044;2022-10-30T11:34:44;20.48;64.24
69084;SHT31;56185;48.526;9.044;2022-10-30T11:37:29;20.64;64.05
69084;SHT31;56185;48.526;9.044;2022-10-30T11:40:02;20.73;63.24
69084;SHT31;56185;48.526;9.044;2022-10-30T11:42:27;20.77;64.18
69084;SHT31;56185;48.526;9.044;2022-10-30T11:44:52;20.85;64.50
69084;SHT31;56185;48.526;9.044;2022-10-30T11:47:24;20.95;65.31
69084;SHT31;56185;48.526;9.044;2022-10-30T11:49:58;21.05;65.80
69084;SHT31;56185;48.526;9.044;2022-10-30T11:52:25;21.16;65.13
69084;SHT31;56185;48.526;9.044;2022-10-30T11:55:15;21.32;63.91
69084;SHT31;56185;48.526;9.044;2022-10-30T11:58:19;21.36;62.62
69084;SHT31;56185;48.526;9.044;2022-10-30T12:04:53;21.59;62.84
69084;SHT31;56185;48.526;9.044;2022-10-30T12:13:19;21.84;63.09
69084;SHT31;56185;48.526;9.044;2022-10-30T12:15:57;21.93;62.69
69084;SHT31;56185;48.526;9.044;2022-10-30T12:18:40;21.90;62.22
69084;SHT31;56185;48.526;9.044;2022-10-30T12:21:33;22.03;61.91
69084;SHT31;56185;48.526;9.044;2022-10-30T12:24:29;21.98;61.71
69084;SHT31;56185;48.526;9.044;2022-10-30T12:27:09;21.94;62.03
69084;SHT31;56185;48.526;9.044;2022-10-30T12:33:11;22.14;62.73
69084;SHT31;56185;48.526;9.044;2022-10-30T12:35:58;22.22;62.44
69084;SHT31;56185;48.526;9.044;2022-10-30T12:38:53;22.31;62.11
69084;SHT31;56185;48.526;9.044;2022-10-30T12:44:44;22.47;62.30
69084;SHT31;56185;48.526;9.044;2022-10-30T12:53:42;22.52;62.13
69084;SHT31;56185;48.526;9.044;2022-10-30T12:56:37;22.56;61.82
69084;SHT31;56185;48.526;9.044;2022-10-30T12:59:26;22.62;61.73
69084;SHT31;56185;48.526;9.044;2022-10-30T13:05:04;22.73;61.47
69084;SHT31;56185;48.526;9.044;2022-10-30T13:07:37;22.73;61.41
69084;SHT31;56185;48.526;9.044;2022-10-30T13:10:37;22.81;61.15
69084;SHT31;56185;48.526;9.044;2022-10-30T13:13:23;22.79;60.83
69084;SHT31;56185;48.526;9.044;2022-10-30T13:15:54;22.81;60.79
69084;SHT31;56185;48.526;9.044;2022-10-30T13:21:41;22.73;60.15
69084;SHT31;56185;48.526;9.044;2022-10-30T13:27:43;22.85;59.13
69084;SHT31;56185;48.526;9.044;2022-10-30T13:30:33;22.90;59.45
69084;SHT31;56185;48.526;9.044;2022-10-30T13:33:19;22.95;58.40
69084;SHT31;56185;48.526;9.044;2022-10-30T13:39:25;23.02;54.95
69084;SHT31;56185;48.526;9.044;2022-10-30T13:42:08;23.02;56.73
69084;SHT31;56185;48.526;9.044;2022-10-30T13:52:21;23.12;60.39
69084;SHT31;56185;48.526;9.044;2022-10-30T13:54:56;23.12;60.25
69084;SHT31;56185;48.526;9.044;2022-10-30T14:00:20;23.07;59.64
69084;SHT31;56185;48.526;9.044;2022-10-30T14:08:19;23.09;59.80
69084;SHT31;56185;48.526;9.044;2022-10-30T14:10:48;23.03;58.58
69084;SHT31;56185;48.526;9.044;2022-10-30T14:13:20;23.03;58.65
69084;SHT31;56185;48.526;9.044;2022-10-30T14:15:46;23.06;59.05
69084;SHT31;56185;48.526;9.044;2022-10-30T14:20:50;22.99;57.86
69084;SHT31;56185;48.526;9.044;2022-10-30T14:28:29;22.82;62.74
69084;SHT31;56185;48.526;9.044;2022-10-30T14:31:06;22.85;62.85
69084;SHT31;56185;48.526;9.044;2022-10-30T14:44:24;22.42;65.56
69084;SHT31;56185;48.526;9.044;2022-10-30T14:52:27;22.30;67.74
69084;SHT31;56185;48.526;9.044;2022-10-30T15:00:39;22.00;69.49
69084;SHT31;56185;48.526;9.044;2022-10-30T15:06:16;21.80;69.56
69084;SHT31;56185;48.526;9.044;2022-10-30T15:14:37;21.59;70.38
69084;SHT31;56185;48.526;9.044;2022-10-30T15:19:48;21.45;70.08
69084;SHT31;56185;48.526;9.044;2022-10-30T15:22:18;21.43;70.45
69084;SHT31;56185;48.526;9.044;2022-10-30T15:24:44;21.39;70.81
69084;SHT31;56185;48.526;9.044;2022-10-30T15:27:20;21.35;71.06
69084;SHT31;56185;48.526;9.044;2022-10-30T15:29:59;21.32;71.09
69084;SHT31;56185;48.526;9.044;2022-10-30T15:32:28;21.21;71.41
69084;SHT31;56185;48.526;9.044;2022-10-30T15:45:46;20.64;73.02
69084;SHT31;56185;48.526;9.044;2022-10-30T15:48:46;20.56;73.15
69084;SHT31;56185;48.526;9.044;2022-10-30T15:51:21;20.46;73.38
69084;SHT31;56185;48.526;9.044;2022-10-30T15:54:02;20.39;73.43
69084;SHT31;56185;48.526;9.044;2022-10-30T15:56:38;20.34;73.29
69084;SHT31;56185;48.526;9.044;2022-10-30T15:59:06;20.36;73.35
69084;SHT31;56185;48.526;9.044;2022-10-30T16:01:43;20.09;74.15
69084;SHT31;56185;48.526;9.044;2022-10-30T16:04:14;20.05;74.24
69084;SHT31;56185;48.526;9.044;2022-10-30T16:06:39;19.96;74.46
69084;SHT31;56185;48.526;9.044;2022-10-30T16:09:13;19.83;74.43
69084;SHT31;56185;48.526;9.044;2022-10-30T16:11:38;19.78;74.43
69084;SHT31;56185;48.526;9.044;2022-10-30T16:14:06;19.58;75.34
69084;SHT31;56185;48.526;9.044;2022-10-30T16:16:32;19.61;75.18
69084;SHT31;56185;48.526;9.044;2022-10-30T16:18:59;19.59;75.04
69084;SHT31;56185;48.526;9.044;2022-10-30T16:21:26;19.48;74.94
69084;SHT31;56185;48.526;9.044;2022-10-30T16:23:54;19.37;75.20
69084;SHT31;56185;48.526;9.044;2022-10-30T16:28:51;19.23;75.64
69084;SHT31;56185;48.526;9.044;2022-10-30T16:31:16;19.16;75.71
69084;SHT31;56185;48.526;9.044;2022-10-30T16:33:42;18.99;75.99
69084;SHT31;56185;48.526;9.044;2022-10-30T16:36:10;18.99;75.84
69084;SHT31;56185;48.526;9.044;2022-10-30T16:38:37;18.85;76.51
69084;SHT31;56185;48.526;9.044;2022-10-30T16:41:04;18.89;76.23
69084;SHT31;56185;48.526;9.044;2022-10-30T16:43:31;18.75;76.64
69084;SHT31;56185;48.526;9.044;2022-10-30T16:48:57;18.44;76.23
69084;SHT31;56185;48.526;9.044;2022-10-30T16:51:24;18.47;76.30
69084;SHT31;56185;48.526;9.044;2022-10-30T16:53:51;18.47;76.26
69084;SHT31;56185;48.526;9.044;2022-10-30T16:56:22;18.41;76.21
69084;SHT31;56185;48.526;9.044;2022-10-30T16:58:49;18.34;76.17
69084;SHT31;56185;48.526;9.044;2022-10-30T17:01:15;18.29;76.28
69084;SHT31;56185;48.526;9.044;2022-10-30T17:03:41;18.25;76.66
69084;SHT31;56185;48.526;9.044;2022-10-30T17:06:27;18.21;76.43
69084;SHT31;56185;48.526;9.044;2022-10-30T17:08:56;18.18;76.58
69084;SHT31;56185;48.526;9.044;2022-10-30T17:11:39;17.97;77.47
69084;SHT31;56185;48.526;9.044;2022-10-30T17:14:16;17.90;77.92
69084;SHT31;56185;48.526;9.044;2022-10-30T17:16:59;17.81;78.19
69084;SHT31;56185;48.526;9.044;2022-10-30T17:22:00;17.74;78.49
69084;SHT31;56185;48.526;9.044;2022-10-30T17:24:34;17.73;78.39
69084;SHT31;56185;48.526;9.044;2022-10-30T17:27:02;17.63;78.58
69084;SHT31;56185;48.526;9.044;2022-10-30T17:32:04;17.56;78.34
69084;SHT31;56185;48.526;9.044;2022-10-30T17:34:29;17.53;78.68
69084;SHT31;56185;48.526;9.044;2022-10-30T17:37:00;17.45;79.20
69084;SHT31;56185;48.526;9.044;2022-10-30T17:39:25;17.53;78.81
69084;SHT31;56185;48.526;9.044;2022-10-30T17:41:52;17.45;78.93
69084;SHT31;56185;48.526;9.044;2022-10-30T17:44:20;17.39;78.96
69084;SHT31;56185;48.526;9.044;2022-10-30T17:46:46;17.32;79.63
69084;SHT31;56185;48.526;9.044;2022-10-30T17:51:44;17.11;79.92
69084;SHT31;56185;48.526;9.044;2022-10-30T17:54:11;17.08;80.03
69084;SHT31;56185;48.526;9.044;2022-10-30T17:56:37;17.14;79.29
69084;SHT31;56185;48.526;9.044;2022-10-30T17:59:02;16.89;80.41
69084;SHT31;56185;48.526;9.044;2022-10-30T18:01:28;16.84;80.70
69084;SHT31;56185;48.526;9.044;2022-10-30T18:03:53;16.91;80.06
69084;SHT31;56185;48.526;9.044;2022-10-30T18:06:26;16.78;80.47
69084;SHT31;56185;48.526;9.044;2022-10-30T18:08:51;16.70;81.03
69084;SHT31;56185;48.526;9.044;2022-10-30T18:11:19;16.63;80.74
69084;SHT31;56185;48.526;9.044;2022-10-30T18:13:44;16.49;81.33
69084;SHT31;56185;48.526;9.044;2022-10-30T18:16:11;16.50;80.85
69084;SHT31;56185;48.526;9.044;2022-10-30T18:18:37;16.60;80.42
69084;SHT31;56185;48.526;9.044;2022-10-30T18:21:02;16.49;80.46
69084;SHT31;56185;48.526;9.044;2022-10-30T18:23:28;16.24;81.87
69084;SHT31;56185;48.526;9.044;2022-10-30T18:25:53;16.22;81.54
69084;SHT31;56185;48.526;9.044;2022-10-30T18:28:18;16.27;80.98